createdAt,value
2019-03-06T00:00:35.878Z,58.80
2019-03-06T00:03:03.682Z,58.90
2019-03-06T00:05:31.462Z,58.90
2019-03-06T00:07:59.263Z,59.00
2019-03-06T00:10:27.336Z,58.70
2019-03-06T00:12:55.227Z,59.10
2019-03-06T00:15:23.007Z,59.00
2019-03-06T00:17:50.802Z,59.00
2019-03-06T00:20:18.820Z,59.30
2019-03-06T00:22:46.635Z,59.20
2019-03-06T00:25:14.418Z,59.10
2019-03-06T00:27:42.215Z,59.10
2019-03-06T00:30:10.017Z,59.30
2019-03-06T00:32:37.810Z,59.20
2019-03-06T00:35:08.671Z,59.20
2019-03-06T00:37:36.482Z,59.40
2019-03-06T00:40:13.473Z,59.30
2019-03-06T00:42:45.728Z,59.30
2019-03-06T00:45:14.124Z,59.20
2019-03-06T00:47:41.955Z,59.50
2019-03-06T00:50:10.022Z,59.30
2019-03-06T00:52:37.871Z,59.30
2019-03-06T00:55:05.815Z,59.50
2019-03-06T00:57:33.807Z,59.40
2019-03-06T01:00:01.587Z,59.20
2019-03-06T01:02:29.390Z,59.60
2019-03-06T01:04:57.179Z,59.60
2019-03-06T01:07:25.004Z,59.70
2019-03-06T01:09:53.274Z,60.00
2019-03-06T01:12:21.084Z,60.00
2019-03-06T01:14:48.865Z,59.90
2019-03-06T01:17:16.722Z,60.10
2019-03-06T01:19:44.514Z,60.00
2019-03-06T01:22:12.317Z,60.30
2019-03-06T01:24:40.151Z,60.10
2019-03-06T01:27:07.933Z,60.20
2019-03-06T01:29:35.770Z,60.10
2019-03-06T01:32:03.558Z,60.00
2019-03-06T01:34:42.938Z,60.10
2019-03-06T01:37:24.722Z,60.20
2019-03-06T01:40:10.578Z,60.50
2019-03-06T01:42:46.710Z,61.40
2019-03-06T01:45:14.551Z,60.70
2019-03-06T01:47:42.330Z,60.60
2019-03-06T01:50:11.526Z,60.80
2019-03-06T01:52:39.333Z,60.90
2019-03-06T01:55:07.766Z,61.00
2019-03-06T01:57:35.550Z,61.10
2019-03-06T02:00:03.582Z,61.20
2019-03-06T02:02:31.435Z,61.00
2019-03-06T02:04:59.237Z,61.20
2019-03-06T02:07:27.295Z,61.20
2019-03-06T02:09:55.078Z,61.30
2019-03-06T02:12:22.895Z,61.30
2019-03-06T02:14:50.718Z,61.30
2019-03-06T02:17:18.506Z,61.30
2019-03-06T02:19:46.401Z,61.00
2019-03-06T02:22:14.200Z,61.20
2019-03-06T02:24:41.978Z,61.40
2019-03-06T02:27:09.766Z,61.60
2019-03-06T02:29:37.558Z,61.70
2019-03-06T02:32:05.359Z,61.90
2019-03-06T02:34:33.232Z,62.00
2019-03-06T02:37:01.087Z,61.90
2019-03-06T02:39:28.886Z,61.90
2019-03-06T02:41:56.658Z,61.90
2019-03-06T02:44:24.462Z,62.10
2019-03-06T02:46:52.238Z,61.90
2019-03-06T02:49:20.023Z,62.20
2019-03-06T02:51:47.857Z,62.40
2019-03-06T02:54:15.669Z,62.50
2019-03-06T02:56:43.447Z,62.40
2019-03-06T02:59:25.166Z,62.70
2019-03-06T03:02:04.195Z,62.60
2019-03-06T03:04:43.372Z,62.50
2019-03-06T03:07:14.091Z,62.80
2019-03-06T03:09:41.906Z,63.00
2019-03-06T03:12:09.695Z,62.80
2019-03-06T03:14:37.489Z,62.70
2019-03-06T03:17:05.272Z,62.80
2019-03-06T03:19:33.078Z,63.00
2019-03-06T03:22:01.145Z,62.90
2019-03-06T03:24:28.959Z,62.90
2019-03-06T03:26:56.792Z,63.70
2019-03-06T03:29:24.711Z,63.10
2019-03-06T03:31:52.503Z,63.30
2019-03-06T03:34:20.477Z,63.50
2019-03-06T03:36:48.616Z,63.10
2019-03-06T03:39:16.420Z,63.20
2019-03-06T03:41:44.197Z,63.20
2019-03-06T03:44:11.995Z,63.30
2019-03-06T03:46:39.795Z,63.30
2019-03-06T03:49:07.579Z,63.30
2019-03-06T03:51:35.377Z,63.10
2019-03-06T03:54:03.178Z,63.10
2019-03-06T03:56:31.014Z,63.20
2019-03-06T03:58:58.816Z,63.10
2019-03-06T04:01:26.614Z,63.30
2019-03-06T04:03:54.579Z,63.50
2019-03-06T04:06:22.411Z,63.60
2019-03-06T04:08:50.326Z,63.80
2019-03-06T04:11:18.147Z,63.90
2019-03-06T04:13:45.938Z,63.70
2019-03-06T04:16:13.807Z,64.00
2019-03-06T04:18:41.591Z,64.10
2019-03-06T04:21:09.399Z,64.20
2019-03-06T04:23:37.190Z,64.40
2019-03-06T04:26:05.018Z,64.20
2019-03-06T04:28:32.820Z,64.30
2019-03-06T04:31:00.610Z,64.10
2019-03-06T04:33:28.705Z,64.40
2019-03-06T04:35:56.543Z,64.30
2019-03-06T04:38:24.339Z,64.10
2019-03-06T04:40:52.155Z,64.60
2019-03-06T04:43:19.942Z,64.00
2019-03-06T04:45:47.863Z,64.30
2019-03-06T04:48:15.663Z,64.20
2019-03-06T04:50:43.474Z,64.10
2019-03-06T04:53:11.306Z,64.20
2019-03-06T04:55:39.122Z,64.20
2019-03-06T04:58:06.988Z,64.40
2019-03-06T05:00:35.058Z,64.00
2019-03-06T05:03:02.850Z,64.40
2019-03-06T05:05:30.648Z,64.40
2019-03-06T05:07:58.437Z,64.00
2019-03-06T05:10:26.254Z,64.60
2019-03-06T05:12:54.035Z,64.20
2019-03-06T05:15:21.905Z,63.40
2019-03-06T05:17:54.765Z,63.00
2019-03-06T05:20:22.560Z,62.80
2019-03-06T05:22:50.395Z,62.50
2019-03-06T05:25:18.222Z,62.60
2019-03-06T05:27:46.271Z,62.50
2019-03-06T05:30:14.335Z,62.60
2019-03-06T05:32:42.122Z,62.50
2019-03-06T05:35:29.226Z,62.50
2019-03-06T05:38:05.385Z,62.50
2019-03-06T05:40:33.221Z,63.20
2019-03-06T05:43:01.014Z,62.30
2019-03-06T05:45:28.801Z,62.30
2019-03-06T05:47:56.586Z,62.10
2019-03-06T05:50:24.378Z,62.10
2019-03-06T05:52:52.257Z,62.20
2019-03-06T05:55:20.063Z,62.10
2019-03-06T05:57:47.871Z,62.20
2019-03-06T06:00:16.064Z,61.80
2019-03-06T06:02:43.866Z,61.80
2019-03-06T06:05:12.019Z,61.80
2019-03-06T06:07:41.532Z,61.70
2019-03-06T06:10:09.919Z,61.70
2019-03-06T06:12:37.706Z,61.60
2019-03-06T06:15:06.348Z,61.50
2019-03-06T06:17:34.135Z,61.60
2019-03-06T06:20:01.927Z,61.50
2019-03-06T06:22:43.694Z,61.40
2019-03-06T06:25:11.758Z,61.40
2019-03-06T06:27:39.635Z,61.40
2019-03-06T06:30:07.706Z,61.40
2019-03-06T06:32:35.505Z,61.30
2019-03-06T06:35:03.305Z,61.20
2019-03-06T06:37:31.094Z,61.20
2019-03-06T06:39:58.916Z,61.20
2019-03-06T06:42:26.702Z,61.10
2019-03-06T06:44:54.517Z,61.10
2019-03-06T06:47:22.330Z,61.10
2019-03-06T06:49:50.131Z,60.90
2019-03-06T06:52:43.574Z,60.80
2019-03-06T06:55:17.491Z,60.90
2019-03-06T06:58:31.134Z,60.90
2019-03-06T07:01:10.530Z,60.90
2019-03-06T07:04:08.531Z,60.90
2019-03-06T07:06:54.248Z,60.80
2019-03-06T07:09:40.126Z,60.90
2019-03-06T07:12:16.574Z,60.80
2019-03-06T07:14:52.945Z,61.10
2019-03-06T07:17:39.898Z,58.40
2019-03-06T07:20:24.918Z,56.50
2019-03-06T07:23:09.803Z,58.30
2019-03-06T07:25:46.398Z,58.80
2019-03-06T07:28:31.622Z,59.20
2019-03-06T07:31:17.338Z,59.30
2019-03-06T07:33:53.854Z,59.30
2019-03-06T07:36:39.295Z,59.30
2019-03-06T07:39:36.418Z,59.50
2019-03-06T07:42:22.185Z,59.30
2019-03-06T07:45:24.096Z,59.30
2019-03-06T07:48:14.334Z,59.30
2019-03-06T07:50:47.762Z,59.30
2019-03-06T07:53:51.576Z,59.20
2019-03-06T07:56:32.359Z,59.20
2019-03-06T07:59:00.435Z,59.20
2019-03-06T08:01:29.286Z,59.20
2019-03-06T08:04:07.219Z,59.20
2019-03-06T08:06:35.074Z,59.10
2019-03-06T08:09:03.806Z,59.10
2019-03-06T08:12:06.238Z,59.00
2019-03-06T08:14:55.884Z,59.50
2019-03-06T08:17:42.839Z,58.90
2019-03-06T08:20:18.639Z,59.00
2019-03-06T08:23:02.518Z,58.90
2019-03-06T08:25:46.387Z,58.90
2019-03-06T08:28:14.809Z,58.90
2019-03-06T08:30:46.966Z,58.90
2019-03-06T08:33:18.211Z,58.90
2019-03-06T08:35:44.383Z,58.90
2019-03-06T08:38:12.186Z,58.80
2019-03-06T08:40:39.978Z,58.70
2019-03-06T08:43:07.775Z,58.70
2019-03-06T08:45:47.991Z,58.80
2019-03-06T08:48:22.513Z,58.70
2019-03-06T08:50:59.454Z,58.70
2019-03-06T08:53:34.562Z,58.60
2019-03-06T08:56:27.527Z,58.60
2019-03-06T08:59:11.812Z,58.50
2019-03-06T09:02:00.857Z,59.20
2019-03-06T09:04:46.137Z,58.60
2019-03-06T09:07:32.358Z,58.60
2019-03-06T09:10:10.786Z,58.50
2019-03-06T09:12:57.739Z,58.60
2019-03-06T09:15:44.786Z,58.60
2019-03-06T09:18:22.451Z,58.50
2019-03-06T09:20:56.558Z,58.50
2019-03-06T09:23:42.319Z,58.40
2019-03-06T09:26:16.759Z,58.40
2019-03-06T09:29:01.264Z,58.40
2019-03-06T09:31:35.119Z,58.40
2019-03-06T09:34:22.086Z,58.30
2019-03-06T09:37:08.539Z,58.30
2019-03-06T09:40:01.713Z,58.30
2019-03-06T09:42:37.969Z,58.30
2019-03-06T09:45:19.348Z,58.30
2019-03-06T09:47:55.812Z,58.20
2019-03-06T09:50:45.073Z,58.20
2019-03-06T09:53:28.722Z,58.20
2019-03-06T09:56:24.771Z,58.20
2019-03-06T09:59:07.355Z,58.20
2019-03-06T10:01:46.894Z,58.20
2019-03-06T10:04:36.674Z,58.20
2019-03-06T10:07:14.495Z,58.20
2019-03-06T10:10:04.014Z,58.20
2019-03-06T10:13:06.706Z,58.20
2019-03-06T10:15:43.923Z,58.10
2019-03-06T10:18:19.770Z,58.20
2019-03-06T10:20:47.597Z,58.20
2019-03-06T10:23:15.391Z,58.00
2019-03-06T10:25:43.218Z,58.00
2019-03-06T10:28:11.003Z,58.00
2019-03-06T10:30:38.801Z,57.90
2019-03-06T10:33:06.669Z,58.30
2019-03-06T10:35:34.475Z,58.30
2019-03-06T10:38:02.548Z,57.70
2019-03-06T10:40:30.354Z,57.70
2019-03-06T10:42:58.420Z,57.60
2019-03-06T10:45:26.273Z,57.60
2019-03-06T10:47:54.370Z,57.60
2019-03-06T10:50:27.369Z,57.50
2019-03-06T10:52:51.860Z,57.40
2019-03-06T10:55:19.799Z,57.40
2019-03-06T10:57:47.786Z,57.40
2019-03-06T11:00:21.165Z,57.20
2019-03-06T11:02:49.542Z,57.20
2019-03-06T11:05:28.701Z,57.20
2019-03-06T11:07:56.759Z,57.30
2019-03-06T11:10:26.152Z,57.30
2019-03-06T11:12:54.363Z,57.20
2019-03-06T11:15:22.334Z,57.10
2019-03-06T11:17:50.414Z,57.10
2019-03-06T11:20:19.478Z,57.10
2019-03-06T11:22:47.438Z,57.10
2019-03-06T11:25:15.249Z,57.10
2019-03-06T11:27:43.039Z,57.10
2019-03-06T11:30:14.302Z,57.20
2019-03-06T11:32:42.086Z,57.10
2019-03-06T11:35:10.272Z,57.20
2019-03-06T11:37:38.063Z,57.10
2019-03-06T11:40:05.934Z,57.10
2019-03-06T11:42:33.722Z,57.00
2019-03-06T11:45:01.692Z,57.00
2019-03-06T11:47:29.468Z,56.90
2019-03-06T11:49:57.266Z,56.90
2019-03-06T11:52:25.058Z,56.90
2019-03-06T11:54:52.920Z,56.80
2019-03-06T11:57:21.783Z,56.80
2019-03-06T11:59:49.561Z,56.80
2019-03-06T12:02:17.707Z,56.80
2019-03-06T12:04:45.498Z,56.90
2019-03-06T12:07:13.288Z,56.90
2019-03-06T12:09:41.070Z,56.80
2019-03-06T12:12:08.862Z,56.90
2019-03-06T12:14:36.659Z,56.90
2019-03-06T12:17:04.453Z,56.90
2019-03-06T12:19:32.528Z,56.80
2019-03-06T12:22:00.322Z,56.90
2019-03-06T12:24:28.215Z,56.90
2019-03-06T12:26:56.083Z,57.00
2019-03-06T12:29:24.375Z,57.00
2019-03-06T12:31:52.262Z,57.00
2019-03-06T12:34:20.058Z,56.90
2019-03-06T12:36:47.860Z,56.70
2019-03-06T12:39:15.646Z,57.10
2019-03-06T12:41:44.542Z,57.10
2019-03-06T12:44:12.423Z,57.00
2019-03-06T12:46:40.230Z,57.10
2019-03-06T12:49:08.712Z,57.10
2019-03-06T12:51:36.781Z,57.10
2019-03-06T12:54:05.145Z,57.10
2019-03-06T12:56:32.983Z,57.10
2019-03-06T12:59:00.769Z,57.20
2019-03-06T13:01:28.632Z,57.20
2019-03-06T13:03:56.429Z,57.30
2019-03-06T13:06:25.093Z,57.20
2019-03-06T13:08:53.202Z,57.20
2019-03-06T13:11:21.052Z,57.20
2019-03-06T13:13:48.839Z,57.20
2019-03-06T13:16:16.671Z,57.20
2019-03-06T13:18:44.466Z,57.20
2019-03-06T13:21:12.272Z,57.20
2019-03-06T13:23:40.135Z,57.10
2019-03-06T13:26:10.579Z,57.10
2019-03-06T13:28:37.462Z,57.20
2019-03-06T13:31:05.433Z,57.20
2019-03-06T13:33:55.126Z,57.20
2019-03-06T13:36:23.100Z,57.20
2019-03-06T13:38:56.153Z,57.10
2019-03-06T13:41:21.700Z,57.20
2019-03-06T13:43:49.586Z,57.20
2019-03-06T13:46:17.382Z,57.30
2019-03-06T13:48:45.546Z,57.30
2019-03-06T13:51:13.350Z,57.30
2019-03-06T13:53:41.216Z,57.40
2019-03-06T13:56:09.009Z,57.30
2019-03-06T13:58:36.822Z,57.30
2019-03-06T14:01:05.506Z,57.30
2019-03-06T14:03:33.370Z,57.20
2019-03-06T14:06:01.430Z,57.30
2019-03-06T14:08:29.574Z,57.30
2019-03-06T14:10:57.379Z,57.30
2019-03-06T14:13:25.170Z,57.20
2019-03-06T14:15:54.107Z,57.30
2019-03-06T14:18:22.270Z,57.20
2019-03-06T14:20:50.079Z,57.10
2019-03-06T14:23:17.890Z,57.30
2019-03-06T14:25:45.685Z,57.20
2019-03-06T14:28:13.499Z,57.20
2019-03-06T14:30:41.278Z,57.20
2019-03-06T14:33:09.086Z,57.10
2019-03-06T14:35:36.894Z,57.10
2019-03-06T14:38:06.741Z,57.20
2019-03-06T14:40:34.744Z,57.20
2019-03-06T14:43:02.654Z,57.20
2019-03-06T14:45:30.450Z,57.10
2019-03-06T14:47:58.335Z,57.00
2019-03-06T14:50:26.236Z,57.10
2019-03-06T14:52:54.159Z,57.00
2019-03-06T14:55:21.963Z,57.10
2019-03-06T14:57:49.766Z,57.30
2019-03-06T15:00:18.865Z,56.90
2019-03-06T15:02:46.742Z,57.40
2019-03-06T15:05:14.555Z,56.80
2019-03-06T15:07:42.412Z,56.80
2019-03-06T15:10:13.466Z,56.80
2019-03-06T15:12:41.044Z,56.80
2019-03-06T15:15:09.910Z,56.60
2019-03-06T15:17:37.715Z,56.60
2019-03-06T15:20:06.162Z,56.50
2019-03-06T15:22:38.622Z,56.40
2019-03-06T15:25:03.790Z,56.60
2019-03-06T15:27:33.116Z,56.60
2019-03-06T15:30:01.066Z,56.40
2019-03-06T15:32:28.979Z,56.60
2019-03-06T15:34:56.794Z,56.40
2019-03-06T15:37:24.583Z,56.60
2019-03-06T15:39:52.438Z,56.70
2019-03-06T15:42:20.228Z,56.50
2019-03-06T15:44:48.037Z,56.20
2019-03-06T15:47:15.893Z,56.30
2019-03-06T15:49:43.762Z,56.50
2019-03-06T15:52:11.565Z,57.10
2019-03-06T15:54:39.425Z,56.60
2019-03-06T15:57:07.269Z,56.80
2019-03-06T15:59:35.157Z,56.50
2019-03-06T16:02:03.315Z,56.40
2019-03-06T16:04:31.147Z,56.40
2019-03-06T16:06:59.035Z,56.40
2019-03-06T16:09:26.817Z,56.50
2019-03-06T16:11:54.952Z,56.40
2019-03-06T16:14:22.740Z,56.30
2019-03-06T16:16:50.598Z,56.30
2019-03-06T16:19:18.414Z,56.50
2019-03-06T16:21:46.318Z,56.50
2019-03-06T16:24:14.110Z,56.60
2019-03-06T16:26:41.916Z,56.70
2019-03-06T16:29:09.791Z,56.70
2019-03-06T16:31:37.578Z,56.50
2019-03-06T16:34:05.373Z,56.40
2019-03-06T16:36:33.179Z,56.50
2019-03-06T16:39:00.974Z,56.30
2019-03-06T16:41:28.785Z,56.70
2019-03-06T16:43:56.871Z,57.10
2019-03-06T16:46:24.698Z,57.30
2019-03-06T16:48:52.502Z,57.40
2019-03-06T16:51:20.340Z,57.30
2019-03-06T16:53:48.173Z,57.40
2019-03-06T16:56:15.954Z,57.40
2019-03-06T16:58:44.174Z,57.40
2019-03-06T17:01:12.114Z,57.50
2019-03-06T17:03:39.915Z,57.60
2019-03-06T17:06:07.863Z,57.60
2019-03-06T17:08:35.703Z,57.60
2019-03-06T17:11:03.898Z,57.60
2019-03-06T17:13:31.990Z,57.60
2019-03-06T17:16:00.095Z,57.70
2019-03-06T17:18:27.987Z,57.60
2019-03-06T17:20:55.899Z,57.60
2019-03-06T17:23:23.846Z,57.60
2019-03-06T17:25:51.638Z,57.70
2019-03-06T17:28:19.473Z,57.30
2019-03-06T17:30:47.605Z,57.60
2019-03-06T17:33:15.436Z,57.60
2019-03-06T17:35:43.336Z,57.60
2019-03-06T17:38:11.996Z,57.70
2019-03-06T17:40:39.775Z,57.70
2019-03-06T17:43:07.598Z,57.60
2019-03-06T17:45:35.383Z,57.60
2019-03-06T17:48:03.198Z,57.50
2019-03-06T17:50:30.982Z,57.60
2019-03-06T17:52:58.766Z,57.50
2019-03-06T17:55:26.618Z,57.50
2019-03-06T17:57:54.408Z,57.60
2019-03-06T18:00:26.447Z,57.60
2019-03-06T18:02:54.643Z,57.70
2019-03-06T18:05:22.421Z,57.60
2019-03-06T18:07:50.242Z,57.60
2019-03-06T18:10:18.142Z,57.60
2019-03-06T18:12:45.937Z,57.60
2019-03-06T18:15:13.984Z,57.80
2019-03-06T18:17:42.166Z,57.90
2019-03-06T18:20:10.946Z,57.90
2019-03-06T18:22:38.754Z,58.10
2019-03-06T18:25:07.923Z,58.20
2019-03-06T18:27:35.720Z,58.20
2019-03-06T18:30:03.878Z,58.30
2019-03-06T18:32:31.728Z,49.20
2019-03-06T18:34:59.814Z,51.00
2019-03-06T18:37:27.610Z,54.00
2019-03-06T18:39:55.489Z,55.00
2019-03-06T18:42:23.275Z,55.20
2019-03-06T18:44:51.621Z,55.20
2019-03-06T18:47:19.420Z,55.90
2019-03-06T18:49:47.318Z,55.30
2019-03-06T18:52:15.491Z,55.40
2019-03-06T18:54:43.307Z,55.50
2019-03-06T18:57:11.116Z,55.50
2019-03-06T18:59:40.594Z,55.50
2019-03-06T19:02:08.486Z,55.50
2019-03-06T19:04:36.296Z,55.60
2019-03-06T19:07:04.139Z,55.60
2019-03-06T19:09:32.054Z,55.60
2019-03-06T19:11:59.866Z,55.60
2019-03-06T19:14:29.452Z,55.70
2019-03-06T19:16:57.219Z,55.60
2019-03-06T19:27:39.745Z,48.10
2019-03-06T19:30:12.191Z,43.70
2019-03-06T19:32:40.374Z,42.90
2019-03-06T19:35:08.275Z,42.70
2019-03-06T19:37:36.418Z,42.30
2019-03-06T19:40:04.558Z,43.00
2019-03-06T19:42:32.540Z,42.50
2019-03-06T19:45:00.811Z,42.50
2019-03-06T20:17:02.870Z,44.60
2019-03-06T20:19:31.055Z,43.50
2019-03-06T20:21:58.922Z,43.70
2019-03-06T20:24:26.935Z,42.70
2019-03-06T20:26:54.824Z,42.90
2019-03-06T20:29:22.690Z,41.90
2019-03-06T20:31:50.761Z,42.00
2019-03-06T20:34:18.685Z,42.10
2019-03-06T20:36:47.051Z,42.00
2019-03-06T20:39:15.036Z,41.80
2019-03-06T20:41:43.109Z,41.70
2019-03-06T20:44:10.959Z,41.50
2019-03-06T20:46:38.899Z,41.40
2019-03-06T20:49:06.868Z,41.40
2019-03-06T20:51:34.876Z,41.50
2019-03-06T20:54:03.169Z,41.60
2019-03-06T20:56:31.203Z,41.60
2019-03-06T20:58:59.094Z,41.70
2019-03-06T21:01:27.338Z,41.70
2019-03-06T21:03:55.301Z,41.70
2019-03-06T21:06:33.031Z,41.80
2019-03-06T21:08:53.732Z,41.80
2019-03-06T21:11:21.671Z,41.80
2019-03-06T21:13:49.933Z,41.80
2019-03-06T21:16:18.071Z,41.90
2019-03-06T21:18:46.026Z,41.90
2019-03-06T21:21:15.106Z,42.00
2019-03-06T21:23:43.263Z,42.20
2019-03-06T21:26:11.171Z,42.20
2019-03-06T21:28:39.223Z,42.40
2019-03-06T21:31:07.147Z,42.40
2019-03-06T21:33:35.385Z,42.40
2019-03-06T21:36:05.986Z,42.50
2019-03-06T21:38:33.856Z,42.50
2019-03-06T21:41:01.837Z,42.60
2019-03-06T21:43:30.107Z,42.70
2019-03-06T21:46:01.470Z,42.80
2019-03-06T21:48:32.587Z,42.80
2019-03-06T21:51:00.679Z,42.90
2019-03-06T21:53:28.632Z,42.80
2019-03-06T21:55:57.124Z,42.70
2019-03-06T21:58:25.137Z,42.80
2019-03-06T22:00:53.155Z,43.00
2019-03-06T22:03:21.117Z,43.00
2019-03-06T22:05:49.371Z,43.00
2019-03-06T22:08:17.367Z,43.00
2019-03-06T22:10:45.687Z,43.20
2019-03-06T22:13:13.546Z,43.20
2019-03-06T22:15:41.515Z,43.30
2019-03-06T22:18:09.426Z,43.20
2019-03-06T22:20:37.765Z,43.30
2019-03-06T22:23:05.752Z,43.20
2019-03-06T22:25:34.180Z,43.20
2019-03-06T22:28:02.145Z,43.20
2019-03-06T22:30:30.112Z,43.30
2019-03-06T22:32:59.642Z,43.30
2019-03-06T22:35:28.016Z,43.30
2019-03-06T22:37:57.423Z,43.40
2019-03-06T22:40:25.506Z,43.30
2019-03-06T22:42:53.390Z,43.20
2019-03-06T22:45:21.252Z,43.30
2019-03-06T22:47:49.862Z,43.30
2019-03-06T22:50:17.821Z,43.40
2019-03-06T22:52:45.980Z,43.50
2019-03-06T22:55:14.492Z,43.20
2019-03-06T22:57:42.937Z,43.30
2019-03-06T23:00:30.212Z,43.20
2019-03-06T23:02:58.195Z,43.30
2019-03-06T23:05:26.468Z,43.30
2019-03-06T23:07:54.889Z,43.40
2019-03-06T23:10:22.798Z,43.40
2019-03-06T23:12:50.907Z,43.50
2019-03-06T23:15:18.778Z,43.60
2019-03-06T23:17:46.726Z,43.80
2019-03-06T23:20:14.866Z,43.80
2019-03-06T23:22:42.753Z,43.90
2019-03-06T23:25:10.609Z,43.90
2019-03-06T23:27:38.507Z,43.80
2019-03-06T23:30:06.504Z,43.80
2019-03-06T23:32:34.384Z,43.90
2019-03-06T23:35:02.774Z,43.80
2019-03-06T23:37:30.648Z,43.70
2019-03-06T23:39:58.559Z,43.70
2019-03-06T23:42:26.453Z,43.80
2019-03-06T23:44:54.343Z,43.80
2019-03-06T23:47:22.304Z,43.80
2019-03-06T23:49:50.168Z,43.80
2019-03-06T23:52:25.179Z,43.80
2019-03-06T23:54:53.101Z,43.80
2019-03-06T23:57:21.123Z,43.90
2019-03-06T23:59:49.122Z,43.80
